Time;durP1;ratioP1;P1;durP2;ratioP2;P2;SDS_P1;SDS_P2;PMS_P1;PMS_P2;Temp;Humidity;BMP_temperature;BMP_pressure;BME280_temperature;BME280_humidity;BME280_pressure;Samples;Min_cycle;Max_cycle;Signal;HPM_P1;HPM_P2
2022/04/18 00:02:08;;;;;;;3.85;2.60;;;205.30;1203.20;;;;;;4842866;29;20056;-62
2022/04/18 00:04:34;;;;;;;4.07;2.35;;;205.30;1203.20;;;;;;4842922;29;20038;-62
2022/04/18 00:07:01;;;;;;;4.53;2.47;;;205.30;1177.60;;;;;;4826290;29;20034;-61
2022/04/18 00:09:27;;;;;;;4.18;2.38;;;205.30;1203.20;;;;;;4842797;29;20041;-62
2022/04/18 00:11:52;;;;;;;3.63;2.30;;;205.20;1203.20;;;;;;4843138;29;20380;-61
2022/04/18 00:14:18;;;;;;;3.42;2.13;;;205.20;1203.20;;;;;;4842701;29;20528;-62
2022/04/18 00:16:44;;;;;;;5.30;2.45;;;205.10;1228.80;;;;;;4842925;29;20026;-62
2022/04/18 00:19:09;;;;;;;4.10;2.90;;;205.10;1228.80;;;;;;4842794;29;20469;-61
2022/04/18 00:21:35;;;;;;;5.78;3.15;;;205.00;1228.80;;;;;;4843744;29;20118;-62
2022/04/18 00:24:01;;;;;;;5.38;3.08;;;205.00;1228.80;;;;;;4846998;29;20402;-62
2022/04/18 00:26:26;;;;;;;4.28;3.00;;;205.00;1228.80;;;;;;4846389;29;20030;-62
2022/04/18 00:28:52;;;;;;;10.10;2.47;;;205.00;1228.80;;;;;;4846471;29;20026;-62
2022/04/18 00:31:18;;;;;;;5.82;2.30;;;204.90;1254.40;;;;;;4846314;29;20085;-61
2022/04/18 00:33:43;;;;;;;4.00;2.35;;;204.90;1254.40;;;;;;4846720;29;20038;-62
2022/04/18 00:36:09;;;;;;;3.75;2.20;;;204.90;1254.40;;;;;;4846439;29;20026;-61
2022/04/18 00:38:35;;;;;;;5.20;2.17;;;204.90;1228.80;;;;;;4846246;29;20033;-62
2022/04/18 00:41:00;;;;;;;3.05;2.10;;;204.90;1254.40;;;;;;4846367;29;20436;-61
2022/04/18 00:43:47;;;;;;;5.78;2.20;;;204.90;1254.40;;;;;;4846081;29;20114;-62
2022/04/18 00:46:14;;;;;;;6.07;2.20;;;204.90;1254.40;;;;;;4846229;29;20038;-61
2022/04/18 00:48:41;;;;;;;3.33;2.10;;;204.90;1254.40;;;;;;4846302;29;20096;-61
2022/04/18 00:51:11;;;;;;;4.88;2.20;;;204.80;1254.40;;;;;;4846347;29;20044;-61
2022/04/18 00:53:38;;;;;;;2.28;1.70;;;204.80;1254.40;;;;;;4829504;29;20069;-61
2022/04/18 00:56:06;;;;;;;4.68;2.30;;;204.80;1254.40;;;;;;4846013;29;20037;-61
2022/04/18 00:58:32;;;;;;;4.32;2.40;;;204.80;1254.40;;;;;;4845899;29;20381;-61
2022/04/18 01:00:58;;;;;;;6.60;2.78;;;204.80;1254.40;;;;;;4846090;29;20030;-61
2022/04/18 01:03:24;;;;;;;4.28;2.63;;;204.80;1254.40;;;;;;4845689;29;20362;-61
2022/04/18 01:05:50;;;;;;;7.55;3.00;;;180.10;1254.40;;;;;;4845820;29;20435;-61
2022/04/18 01:08:15;;;;;;;5.07;2.88;;;180.10;1254.40;;;;;;4846010;29;20358;-61
2022/04/18 01:10:42;;;;;;;4.10;2.10;;;179.90;1254.40;;;;;;4828833;29;20396;-61
2022/04/18 01:13:08;;;;;;;5.65;2.20;;;179.90;1280.00;;;;;;4845843;29;20033;-63
2022/04/18 01:15:34;;;;;;;4.53;2.42;;;179.90;1280.00;;;;;;4845828;29;20484;-61
2022/04/18 01:17:59;;;;;;;7.68;4.10;;;179.80;1280.00;;;;;;4845795;29;20037;-61
2022/04/18 01:20:35;;;;;;;10.23;4.45;;;179.80;1280.00;;;;;;4845680;29;20034;-61
2022/04/18 01:23:04;;;;;;;4.65;2.20;;;179.80;1280.00;;;;;;4845739;29;20038;-61
2022/04/18 01:30:58;;;;;;;9.47;5.20;;;179.80;1305.60;;;;;;4845387;29;20073;-61
2022/04/18 01:33:25;;;;;;;9.00;2.85;;;179.70;1280.00;;;;;;4844996;29;20469;-61
2022/04/18 01:35:51;;;;;;;7.18;4.20;;;179.70;1280.00;;;;;;4828724;29;20061;-61
2022/04/18 01:38:16;;;;;;;6.35;3.42;;;179.70;1280.00;;;;;;4845464;29;20499;-61
2022/04/18 01:40:42;;;;;;;5.88;3.40;;;179.70;1280.00;;;;;;4845359;29;20118;-61
2022/04/18 01:43:08;;;;;;;4.07;2.50;;;179.60;1280.00;;;;;;4845272;29;20465;-61
2022/04/18 01:45:34;;;;;;;3.38;1.90;;;179.60;1280.00;;;;;;4828736;29;20061;-61
2022/04/18 01:48:01;;;;;;;4.45;2.20;;;179.60;1305.60;;;;;;4845183;29;20030;-61
2022/04/18 01:50:27;;;;;;;3.28;2.00;;;179.60;1305.60;;;;;;4845158;29;20389;-61
2022/04/18 01:52:53;;;;;;;3.28;1.73;;;179.50;1305.60;;;;;;4845181;29;20030;-61
2022/04/18 01:55:18;;;;;;;2.55;1.73;;;179.50;1305.60;;;;;;4844950;29;20366;-61
2022/04/18 01:57:44;;;;;;;3.25;1.98;;;179.50;1305.60;;;;;;4828344;29;20041;-61
2022/04/18 02:00:10;;;;;;;3.65;2.05;;;179.60;1305.60;;;;;;4845030;29;20041;-61
2022/04/18 02:02:36;;;;;;;2.80;1.80;;;179.60;1305.60;;;;;;4844786;29;20040;-61
2022/04/18 02:05:04;;;;;;;3.65;2.00;;;179.50;1305.60;;;;;;4844808;29;20441;-61
2022/04/18 02:07:30;;;;;;;2.28;1.70;;;179.50;1331.20;;;;;;4844758;29;20383;-61
2022/04/18 02:09:55;;;;;;;3.47;1.90;;;179.50;1305.60;;;;;;4844933;29;20034;-61
2022/04/18 02:12:21;;;;;;;3.13;2.00;;;179.40;1331.20;;;;;;4844842;29;20521;-61
2022/04/18 02:14:47;;;;;;;3.63;1.90;;;179.20;1331.20;;;;;;4844749;29;20042;-61
2022/04/18 02:17:13;;;;;;;4.57;2.42;;;179.30;1331.20;;;;;;4844464;29;20495;-61
2022/04/18 02:19:39;;;;;;;4.53;2.20;;;179.30;1331.20;;;;;;4844594;29;20108;-61
2022/04/18 02:22:05;;;;;;;3.55;2.35;;;179.20;1331.20;;;;;;4844532;29;20030;-61
2022/04/18 02:24:31;;;;;;;2.85;2.15;;;154.40;1356.80;;;;;;4828040;29;20397;-61
2022/04/18 02:26:57;;;;;;;4.63;2.38;;;154.50;1356.80;;;;;;4844753;29;20109;-61
2022/04/18 02:29:24;;;;;;;3.42;2.10;;;154.50;1356.80;;;;;;4844411;29;20045;-61
2022/04/18 02:34:34;;;;;;;4.95;2.78;;;154.50;1356.80;;;;;;4844740;29;20443;-61
2022/04/18 02:37:00;;;;;;;3.90;2.25;;;154.40;1356.80;;;;;;4844396;29;20026;-61
2022/04/18 02:39:25;;;;;;;2.38;1.75;;;154.40;1382.40;;;;;;4844241;29;20042;-61
2022/04/18 02:41:51;;;;;;;4.72;2.45;;;154.20;1408.00;;;;;;4844333;29;20026;-61
2022/04/18 02:44:17;;;;;;;3.90;2.80;;;154.20;1382.40;;;;;;4843516;29;20381;-61
2022/04/18 02:46:42;;;;;;;7.65;5.45;;;154.10;1408.00;;;;;;4844228;29;20054;-61
2022/04/18 02:49:08;;;;;;;4.07;3.15;;;154.10;1408.00;;;;;;4844166;29;20113;-61
2022/04/18 02:51:34;;;;;;;6.18;2.70;;;154.10;1408.00;;;;;;4844164;29;20029;-60
2022/04/18 02:54:00;;;;;;;4.10;2.83;;;154.10;1408.00;;;;;;4843876;29;20067;-61
2022/04/18 02:56:26;;;;;;;3.97;3.03;;;154.10;1408.00;;;;;;4844322;29;20022;-61
2022/04/18 02:58:51;;;;;;;3.67;2.60;;;154.10;1408.00;;;;;;4844238;29;20029;-61
2022/04/18 03:01:17;;;;;;;4.78;2.75;;;154.10;1408.00;;;;;;4843967;29;20030;-61
2022/04/18 03:03:43;;;;;;;3.55;2.30;;;154.10;1408.00;;;;;;4844027;29;20036;-61
2022/04/18 03:06:10;;;;;;;4.35;2.65;;;154.10;1408.00;;;;;;4843583;29;20034;-61
2022/04/18 03:08:36;;;;;;;4.47;2.33;;;154.10;1408.00;;;;;;4827044;29;20391;-61
2022/04/18 03:11:09;;;;;;;4.95;2.58;;;154.00;1433.60;;;;;;4843792;29;20418;-61
2022/04/18 03:13:37;;;;;;;4.82;2.28;;;153.90;1433.60;;;;;;4843599;29;20440;-61
2022/04/18 03:16:04;;;;;;;4.50;2.50;;;153.90;1433.60;;;;;;4843724;29;20114;-61
2022/04/18 03:18:30;;;;;;;3.75;2.67;;;153.90;1433.60;;;;;;4843707;29;20026;-61
2022/04/18 03:20:57;;;;;;;4.32;2.30;;;153.90;1433.60;;;;;;4843708;29;20028;-61
2022/04/18 03:23:23;;;;;;;4.15;2.35;;;153.80;1433.60;;;;;;4843395;29;20373;-61
2022/04/18 03:25:49;;;;;;;3.75;2.47;;;153.60;1433.60;;;;;;4843583;29;20037;-61
2022/04/18 03:28:15;;;;;;;6.10;3.30;;;153.60;1459.20;;;;;;4827156;29;20503;-61
2022/04/18 03:30:40;;;;;;;11.20;4.20;;;153.60;1459.20;;;;;;4843296;29;20137;-61
2022/04/18 03:33:07;;;;;;;6.95;4.20;;;153.60;1459.20;;;;;;4843430;29;20196;-61
2022/04/18 03:35:33;;;;;;;6.70;4.32;;;153.60;1459.20;;;;;;4843337;29;20046;-62
2022/04/18 03:40:43;;;;;;;7.30;3.55;;;128.90;1459.20;;;;;;4843584;29;20441;-61
2022/04/18 03:43:08;;;;;;;4.10;3.03;;;128.80;1484.80;;;;;;4843231;29;20034;-62
2022/04/18 03:45:34;;;;;;;5.00;3.05;;;128.90;1459.20;;;;;;4842901;29;20083;-61
2022/04/18 03:48:00;;;;;;;3.88;2.50;;;128.80;1484.80;;;;;;4842644;29;20030;-61
2022/04/18 03:50:26;;;;;;;4.38;2.97;;;128.80;1484.80;;;;;;4843063;29;20026;-61
2022/04/18 03:52:51;;;;;;;4.47;3.00;;;128.80;1484.80;;;;;;4843237;29;20037;-61
2022/04/18 03:55:17;;;;;;;4.97;2.80;;;128.70;1484.80;;;;;;4842607;29;20124;-61
2022/04/18 03:57:43;;;;;;;4.55;2.85;;;128.80;1484.80;;;;;;4843076;29;20056;-61
2022/04/18 04:00:10;;;;;;;5.60;3.58;;;128.80;1484.80;;;;;;4842935;29;20057;-61
2022/04/18 04:02:36;;;;;;;5.32;3.85;;;128.60;1484.80;;;;;;4843012;29;20040;-61
2022/04/18 04:05:03;;;;;;;6.65;3.53;;;128.60;1484.80;;;;;;4842825;29;20112;-61
2022/04/18 04:07:29;;;;;;;7.18;3.95;;;128.60;1484.80;;;;;;4842888;29;20033;-60
2022/04/18 04:09:55;;;;;;;9.82;4.13;;;128.60;1484.80;;;;;;4843158;29;20441;-61
2022/04/18 04:12:27;;;;;;;8.13;4.63;;;128.60;1484.80;;;;;;4843002;29;20117;-61
2022/04/18 04:14:56;;;;;;;49.03;15.45;;;128.60;1484.80;;;;;;4842987;29;20050;-61
2022/04/18 04:17:22;;;;;;;72.93;21.95;;;128.70;1510.40;;;;;;4842912;29;20033;-61
2022/04/18 04:19:48;;;;;;;39.08;11.95;;;128.70;1510.40;;;;;;4842658;29;20574;-61
2022/04/18 04:22:14;;;;;;;33.00;10.35;;;128.70;1510.40;;;;;;4842920;29;20041;-61
2022/04/18 04:24:40;;;;;;;20.65;7.68;;;128.80;1510.40;;;;;;4842704;29;20404;-61
2022/04/18 04:27:06;;;;;;;16.00;5.60;;;128.80;1510.40;;;;;;4842932;29;20484;-61
2022/04/18 04:29:32;;;;;;;11.00;5.30;;;128.80;1510.40;;;;;;4842855;29;20022;-61
2022/04/18 04:31:58;;;;;;;12.07;4.32;;;128.80;1510.40;;;;;;4842462;29;20073;-61
2022/04/18 04:34:24;;;;;;;7.72;4.68;;;128.60;1510.40;;;;;;4842100;29;20038;-61
2022/04/18 04:36:49;;;;;;;6.32;3.97;;;128.70;1510.40;;;;;;4842838;29;20078;-61
2022/04/18 04:39:17;;;;;;;5.35;3.20;;;128.60;1536.00;;;;;;4842631;29;20080;-61
2022/04/18 04:41:43;;;;;;;5.47;3.40;;;128.60;1536.00;;;;;;4842627;29;20109;-61
2022/04/18 04:44:08;;;;;;;7.78;3.80;;;128.70;1536.00;;;;;;4842750;29;20105;-60
2022/04/18 04:46:35;;;;;;;7.18;4.03;;;128.80;1510.40;;;;;;4842707;29;20037;-61
2022/04/18 04:49:02;;;;;;;6.13;4.40;;;128.80;1510.40;;;;;;4842498;29;20038;-61
2022/04/18 04:51:28;;;;;;;7.97;4.10;;;128.80;1510.40;;;;;;4842456;29;20033;-61
2022/04/18 04:53:54;;;;;;;6.95;3.92;;;128.80;1536.00;;;;;;4842444;29;20046;-61
2022/04/18 04:56:21;;;;;;;6.65;4.13;;;128.90;1510.40;;;;;;4826173;29;20038;-61
2022/04/18 04:58:47;;;;;;;7.55;3.60;;;128.90;1536.00;;;;;;4842664;29;20093;-61
2022/04/18 05:01:13;;;;;;;10.02;4.72;;;153.60;1510.40;;;;;;4842699;29;20034;-61
2022/04/18 05:03:39;;;;;;;10.60;5.45;;;128.90;1536.00;;;;;;4842564;29;20380;-61
2022/04/18 05:06:06;;;;;;;11.65;5.53;;;153.60;1510.40;;;;;;4841987;29;20397;-61
2022/04/18 05:08:32;;;;;;;11.68;5.95;;;153.60;1536.00;;;;;;4844581;29;20042;-61
2022/04/18 05:10:59;;;;;;;12.13;6.22;;;153.60;1536.00;;;;;;4845927;29;20496;-61
2022/04/18 05:13:26;;;;;;;10.77;5.70;;;153.70;1536.00;;;;;;4845651;29;20038;-61
2022/04/18 05:15:52;;;;;;;11.38;5.68;;;153.70;1510.40;;;;;;4828343;29;20057;-61
2022/04/18 05:18:18;;;;;;;8.48;4.22;;;153.80;1536.00;;;;;;4845839;29;20408;-61
2022/04/18 05:20:46;;;;;;;9.63;4.43;;;153.80;1510.40;;;;;;4845682;29;20061;-60
2022/04/18 05:23:16;;;;;;;7.97;4.03;;;153.90;1510.40;;;;;;4845734;29;20061;-61
2022/04/18 05:25:42;;;;;;;8.80;4.80;;;153.90;1536.00;;;;;;4829085;29;20124;-61
2022/04/18 05:28:08;;;;;;;13.75;5.72;;;154.00;1510.40;;;;;;4845606;29;20425;-61
2022/04/18 05:30:36;;;;;;;11.98;4.88;;;154.00;1510.40;;;;;;4845296;29;20050;-61
2022/04/18 05:33:02;;;;;;;10.02;4.05;;;154.00;1510.40;;;;;;4845458;29;20098;-61
2022/04/18 05:35:28;;;;;;;6.30;3.50;;;154.00;1510.40;;;;;;4845335;29;20046;-61
2022/04/18 05:37:53;;;;;;;7.95;4.00;;;154.10;1510.40;;;;;;4845354;29;20034;-61
2022/04/18 05:40:19;;;;;;;8.30;4.13;;;154.10;1510.40;;;;;;4845282;29;20114;-61
2022/04/18 05:42:45;;;;;;;12.63;6.25;;;154.20;1510.40;;;;;;4845373;29;20382;-61
2022/04/18 05:45:11;;;;;;;10.63;6.05;;;154.20;1510.40;;;;;;4845126;29;20044;-61
2022/04/18 05:47:36;;;;;;;10.70;6.28;;;154.20;1510.40;;;;;;4845756;29;20094;-61
2022/04/18 05:50:04;;;;;;;8.35;4.45;;;154.30;1510.40;;;;;;4845338;29;20037;-61
2022/04/18 05:52:29;;;;;;;7.18;3.80;;;154.30;1484.80;;;;;;4845152;29;20481;-60
2022/04/18 05:54:55;;;;;;;6.38;4.10;;;154.40;1484.80;;;;;;4844970;29;20118;-61
2022/04/18 05:57:23;;;;;;;7.05;3.95;;;154.50;1510.40;;;;;;4845168;29;20164;-61
2022/04/18 05:59:49;;;;;;;6.38;3.85;;;154.50;1484.80;;;;;;4845128;29;20037;-61
2022/04/18 06:02:15;;;;;;;6.72;4.68;;;179.20;1484.80;;;;;;4844828;29;20038;-60
2022/04/18 06:04:41;;;;;;;10.23;5.57;;;179.30;1484.80;;;;;;4849683;29;20064;-60
2022/04/18 06:07:07;;;;;;;6.65;4.25;;;179.30;1484.80;;;;;;4854565;29;20074;-60
2022/04/18 06:09:33;;;;;;;6.20;4.10;;;179.40;1484.80;;;;;;4850069;29;20488;-60
2022/04/18 06:11:58;;;;;;;7.05;4.03;;;179.40;1484.80;;;;;;4836982;29;20150;-60
2022/04/18 06:14:24;;;;;;;6.00;3.83;;;179.50;1484.80;;;;;;4853791;29;20077;-60
2022/04/18 06:16:50;;;;;;;9.68;4.72;;;179.60;1459.20;;;;;;4852370;29;20389;-60
2022/04/18 06:19:16;;;;;;;8.38;4.13;;;179.70;1433.60;;;;;;4852868;29;20651;-61
2022/04/18 06:21:41;;;;;;;7.50;4.10;;;179.80;1433.60;;;;;;4853406;29;20030;-60
2022/04/18 06:24:07;;;;;;;11.82;5.82;;;179.90;1433.60;;;;;;4852387;29;20025;-61
2022/04/18 06:26:33;;;;;;;19.10;8.73;;;179.80;1408.00;;;;;;4854054;29;20472;-62
2022/04/18 06:28:59;;;;;;;15.88;6.38;;;179.90;1408.00;;;;;;4851656;29;20030;-61
2022/04/18 06:31:25;;;;;;;15.52;6.90;;;180.10;1433.60;;;;;;4844022;29;20127;-61
2022/04/18 06:33:51;;;;;;;16.95;7.22;;;204.80;1408.00;;;;;;4853779;29;20102;-60
2022/04/18 06:36:16;;;;;;;19.70;7.95;;;204.90;1408.00;;;;;;4853494;29;20038;-60
2022/04/18 06:38:42;;;;;;;11.18;5.60;;;205.10;1408.00;;;;;;4854266;29;20095;-60
2022/04/18 06:41:09;;;;;;;13.85;6.53;;;205.20;1382.40;;;;;;4843876;29;20108;-61
2022/04/18 06:43:35;;;;;;;12.52;5.22;;;205.40;1408.00;;;;;;4844336;29;20046;-61
2022/04/18 06:46:01;;;;;;;9.40;5.03;;;205.50;1356.80;;;;;;4844338;29;20044;-61
2022/04/18 06:48:26;;;;;;;17.15;5.57;;;205.60;1356.80;;;;;;4844204;29;20129;-61
2022/04/18 06:50:52;;;;;;;8.52;5.72;;;230.40;1356.80;;;;;;4844342;29;20026;-61
2022/04/18 06:53:18;;;;;;;16.10;7.18;;;230.40;1331.20;;;;;;4844210;29;20026;-61
2022/04/18 06:58:29;;;;;;;8.68;4.57;;;230.70;1305.60;;;;;;4844313;29;20430;-61
2022/04/18 07:00:55;;;;;;;19.17;8.85;;;230.80;1305.60;;;;;;4844039;29;20137;-61
2022/04/18 07:03:20;;;;;;;11.48;7.47;;;231.00;1305.60;;;;;;4844015;29;20101;-61
2022/04/18 07:05:48;;;;;;;11.88;4.28;;;231.10;1280.00;;;;;;4843886;29;20034;-61
2022/04/18 07:08:14;;;;;;;10.73;6.40;;;231.20;1280.00;;;;;;4843732;29;20388;-61
2022/04/18 07:10:39;;;;;;;16.13;6.78;;;231.30;1280.00;;;;;;4843774;29;20105;-61
2022/04/18 07:13:05;;;;;;;7.47;5.03;;;256.10;1254.40;;;;;;4843847;29;20096;-61
2022/04/18 07:15:32;;;;;;;7.88;4.43;;;256.30;1228.80;;;;;;4843780;29;20041;-61
2022/04/18 07:17:58;;;;;;;11.30;4.28;;;256.40;1203.20;;;;;;4843663;29;20030;-61
2022/04/18 07:20:24;;;;;;;6.35;4.18;;;256.40;1203.20;;;;;;4857091;29;20120;-61
2022/04/18 07:22:50;;;;;;;8.18;4.15;;;256.50;1203.20;;;;;;4843665;29;20171;-61
2022/04/18 07:25:15;;;;;;;5.72;3.60;;;256.80;1203.20;;;;;;4844154;29;20472;-61
2022/04/18 07:27:41;;;;;;;6.40;3.20;;;281.60;1203.20;;;;;;4827216;29;20061;-61
2022/04/18 07:30:08;;;;;;;4.43;2.70;;;281.80;1203.20;;;;;;4843307;29;20026;-61
2022/04/18 07:32:43;;;;;;;4.32;2.85;;;282.10;1177.60;;;;;;4843461;29;20034;-61
2022/04/18 07:35:10;;;;;;;5.38;2.72;;;282.20;1152.00;;;;;;4843470;29;20040;-61
2022/04/18 07:37:36;;;;;;;7.05;3.75;;;282.40;1152.00;;;;;;4843527;29;20389;-61
2022/04/18 07:40:03;;;;;;;8.50;3.85;;;307.20;1126.40;;;;;;4843130;29;20033;-61
2022/04/18 07:42:29;;;;;;;7.20;4.25;;;307.40;1100.80;;;;;;4843209;29;20037;-61
2022/04/18 07:44:55;;;;;;;5.38;2.75;;;307.40;1100.80;;;;;;4843301;29;20113;-61
2022/04/18 07:47:20;;;;;;;4.00;3.03;;;307.60;1075.20;;;;;;4842931;29;20099;-61
2022/04/18 07:49:46;;;;;;;4.43;1.77;;;307.80;1075.20;;;;;;4842736;29;20057;-61
2022/04/18 07:52:12;;;;;;;2.42;1.98;;;307.90;1049.60;;;;;;4843438;29;20544;-61
2022/04/18 07:54:39;;;;;;;2.60;1.90;;;308.10;1024.00;;;;;;4843192;29;20046;-61
2022/04/18 07:57:05;;;;;;;5.45;2.20;;;308.10;1024.00;;;;;;4843142;29;20052;-61
2022/04/18 07:59:31;;;;;;;8.20;2.92;;;332.90;1049.60;;;;;;4842888;29;20034;-61
2022/04/18 08:01:57;;;;;;;6.22;2.10;;;333.00;1024.00;;;;;;4842802;29;20046;-61
2022/04/18 08:04:23;;;;;;;4.90;2.17;;;333.10;1024.00;;;;;;4842790;29;20109;-61
2022/04/18 08:06:48;;;;;;;14.50;10.18;;;333.20;972.80;;;;;;4843098;29;20029;-61
2022/04/18 08:09:14;;;;;;;51.83;19.88;;;333.30;972.80;;;;;;4843054;29;20041;-61
2022/04/18 08:11:40;;;;;;;72.45;27.50;;;333.30;921.60;;;;;;4842978;29;20397;-61
2022/04/18 08:14:06;;;;;;;37.45;13.68;;;333.40;972.80;;;;;;4842563;29;20172;-61
2022/04/18 08:16:32;;;;;;;95.07;33.70;;;333.50;921.60;;;;;;4843107;29;20038;-61
2022/04/18 08:18:58;;;;;;;52.55;20.52;;;333.70;947.20;;;;;;4842964;29;20033;-61
2022/04/18 08:21:24;;;;;;;128.57;47.47;;;358.40;896.00;;;;;;4842749;29;20430;-61
2022/04/18 08:23:53;;;;;;;42.90;17.95;;;358.60;896.00;;;;;;4842458;29;20053;-61
2022/04/18 08:26:19;;;;;;;25.27;13.88;;;358.70;870.40;;;;;;4841519;29;20037;-61
2022/04/18 08:28:45;;;;;;;89.75;42.95;;;358.80;870.40;;;;;;4842808;29;20030;-61
2022/04/18 08:31:11;;;;;;;100.00;33.85;;;358.90;844.80;;;;;;4842558;29;20069;-61
2022/04/18 08:33:37;;;;;;;208.13;62.38;;;358.90;819.20;;;;;;4842950;29;20034;-60
2022/04/18 08:36:03;;;;;;;147.77;45.22;;;359.00;819.20;;;;;;4856161;29;20038;-61
2022/04/18 08:38:29;;;;;;;64.05;23.77;;;359.10;793.60;;;;;;4842821;29;20038;-61
2022/04/18 08:40:58;;;;;;;13.98;7.03;;;359.10;768.00;;;;;;4842570;29;20158;-61
2022/04/18 08:43:23;;;;;;;129.55;58.60;;;359.20;793.60;;;;;;4844671;29;20026;-61
2022/04/18 08:45:49;;;;;;;60.60;23.60;;;359.30;768.00;;;;;;4846424;29;20022;-61
2022/04/18 08:53:47;;;;;;;7.35;2.00;;;384.10;793.60;;;;;;4846534;29;20037;-61
2022/04/18 08:56:13;;;;;;;10.77;6.90;;;384.20;768.00;;;;;;4846306;29;20030;-61
2022/04/18 08:58:40;;;;;;;9.88;4.85;;;384.30;716.80;;;;;;4846060;29;20060;-61
2022/04/18 09:01:06;;;;;;;22.40;12.48;;;384.40;742.40;;;;;;4845985;29;20446;-61
2022/04/18 09:03:32;;;;;;;15.93;10.18;;;384.30;768.00;;;;;;4846056;29;20040;-61
2022/04/18 09:06:10;;;;;;;71.38;45.25;;;384.10;742.40;;;;;;4845795;29;20057;-61
2022/04/18 09:08:53;;;;;;;38.53;26.42;;;384.20;793.60;;;;;;4846034;29;20066;-61
2022/04/18 09:11:33;;;;;;;7.05;5.03;;;384.30;793.60;;;;;;4845627;29;20030;-60
2022/04/18 09:14:05;;;;;;;7.47;5.90;;;384.40;768.00;;;;;;4845494;29;20459;-61
2022/04/18 09:16:31;;;;;;;4.00;3.20;;;384.40;742.40;;;;;;4845599;29;20037;-61
2022/04/18 09:19:09;;;;;;;3.65;2.72;;;384.50;742.40;;;;;;4845781;29;20034;-61
2022/04/18 09:21:40;;;;;;;18.55;6.50;;;384.50;742.40;;;;;;4845599;29;20140;-59
2022/04/18 09:24:06;;;;;;;46.00;17.23;;;384.70;768.00;;;;;;4847031;29;20573;-61
2022/04/18 09:26:32;;;;;;;74.72;30.83;;;384.80;793.60;;;;;;4852466;29;20038;-61
2022/04/18 09:29:05;;;;;;;20.45;9.80;;;384.70;742.40;;;;;;4854212;29;20026;-62
2022/04/18 09:31:39;;;;;;;24.95;12.02;;;384.80;742.40;;;;;;4851827;29;20128;-61
2022/04/18 09:34:05;;;;;;;12.32;5.65;;;384.80;768.00;;;;;;4862537;29;20098;-60
2022/04/18 09:36:31;;;;;;;23.00;11.90;;;384.80;768.00;;;;;;4845310;29;20045;-61
2022/04/18 09:38:57;;;;;;;6.80;4.18;;;409.60;793.60;;;;;;4845310;29;20377;-61
2022/04/18 09:41:25;;;;;;;2.75;1.80;;;409.70;793.60;;;;;;4845242;29;20506;-62
2022/04/18 09:43:53;;;;;;;2.08;1.70;;;384.90;768.00;;;;;;4845331;29;20089;-62
2022/04/18 09:46:20;;;;;;;4.85;2.70;;;384.80;742.40;;;;;;4845232;29;20557;-62
2022/04/18 09:48:47;;;;;;;3.90;2.67;;;384.70;742.40;;;;;;4845222;29;20034;-61
2022/04/18 09:51:17;;;;;;;4.35;2.70;;;384.70;742.40;;;;;;4845058;29;20022;-61
2022/04/18 09:53:46;;;;;;;6.25;2.90;;;384.80;768.00;;;;;;4844651;29;20109;-62
2022/04/18 09:56:16;;;;;;;3.30;2.30;;;384.80;742.40;;;;;;4844939;29;20382;-62
2022/04/18 09:58:43;;;;;;;3.45;2.10;;;409.60;793.60;;;;;;4847205;29;20029;-61
2022/04/18 10:01:09;;;;;;;22.27;11.70;;;384.80;742.40;;;;;;4853693;29;20377;-62
2022/04/18 10:03:36;;;;;;;18.63;10.45;;;384.50;742.40;;;;;;4836580;29;20551;-62
2022/04/18 10:06:03;;;;;;;11.20;7.30;;;384.50;742.40;;;;;;4833693;29;20103;-61
2022/04/18 10:08:30;;;;;;;10.73;6.63;;;384.40;742.40;;;;;;4853510;29;20033;-61
2022/04/18 10:11:00;;;;;;;6.05;3.58;;;384.40;742.40;;;;;;4854562;29;20068;-61
2022/04/18 10:13:27;;;;;;;25.45;14.65;;;384.20;716.80;;;;;;4853364;29;20046;-62
2022/04/18 10:15:54;;;;;;;39.60;22.13;;;384.10;742.40;;;;;;4852768;29;20033;-60
2022/04/18 10:18:21;;;;;;;12.48;6.78;;;384.00;768.00;;;;;;4854236;29;20081;-62
2022/04/18 10:20:55;;;;;;;10.82;5.30;;;359.30;742.40;;;;;;4853067;29;20400;-60
2022/04/18 10:23:33;;;;;;;7.03;2.78;;;359.30;793.60;;;;;;4850165;29;20022;-60
2022/04/18 10:26:29;;;;;;;7.47;2.60;;;359.20;793.60;;;;;;4835771;29;20029;-61
2022/04/18 10:28:59;;;;;;;11.98;5.68;;;359.10;768.00;;;;;;4852985;29;20042;-60
2022/04/18 10:31:34;;;;;;;7.72;4.43;;;359.00;768.00;;;;;;4850838;29;20053;-61
2022/04/18 10:34:01;;;;;;;7.20;3.38;;;358.90;768.00;;;;;;4835794;29;20057;-60
2022/04/18 10:36:33;;;;;;;7.68;4.38;;;358.90;793.60;;;;;;4853240;29;20396;-61
2022/04/18 10:39:07;;;;;;;6.15;3.30;;;358.80;819.20;;;;;;4854005;29;20100;-61
2022/04/18 10:41:41;;;;;;;6.97;4.78;;;358.60;768.00;;;;;;4853447;29;20106;-60
2022/04/18 10:44:08;;;;;;;13.90;6.43;;;358.60;793.60;;;;;;4851101;29;20493;-60
2022/04/18 10:46:37;;;;;;;20.83;11.18;;;358.50;793.60;;;;;;4851397;29;20041;-61
2022/04/18 10:49:31;;;;;;;11.77;6.13;;;358.50;793.60;;;;;;4851980;29;20030;-61
2022/04/18 10:52:08;;;;;;;6.22;3.70;;;358.50;793.60;;;;;;4853064;29;20100;-61
2022/04/18 10:54:35;;;;;;;12.85;8.20;;;358.40;819.20;;;;;;4850853;29;20126;-61
2022/04/18 10:57:13;;;;;;;14.70;9.50;;;358.50;844.80;;;;;;4852108;29;20032;-60
2022/04/18 10:59:42;;;;;;;14.00;7.15;;;358.60;844.80;;;;;;4850128;29;20022;-60
2022/04/18 11:02:29;;;;;;;13.43;7.15;;;358.60;819.20;;;;;;4852028;29;20036;-60
2022/04/18 11:04:54;;;;;;;46.25;22.60;;;358.50;819.20;;;;;;4852788;29;20086;-61
2022/04/18 11:07:40;;;;;;;30.10;15.43;;;358.50;844.80;;;;;;4859521;29;20033;-62
2022/04/18 11:10:37;;;;;;;15.23;8.15;;;358.40;819.20;;;;;;4861740;29;20506;-61
2022/04/18 11:13:03;;;;;;;12.00;5.65;;;358.60;819.20;;;;;;4844041;29;20049;-61
2022/04/18 11:15:29;;;;;;;5.93;3.30;;;358.50;793.60;;;;;;4862303;29;20041;-61
2022/04/18 11:18:01;;;;;;;7.20;3.20;;;358.50;793.60;;;;;;4856612;29;20527;-60
2022/04/18 11:20:29;;;;;;;25.23;12.63;;;358.50;793.60;;;;;;4850101;29;20504;-61
2022/04/18 11:23:27;;;;;;;16.98;10.32;;;358.50;768.00;;;;;;4861531;29;20077;-60
2022/04/18 11:26:03;;;;;;;12.75;5.82;;;358.60;793.60;;;;;;4862397;29;20034;-61
2022/04/18 11:28:39;;;;;;;11.70;6.95;;;358.60;793.60;;;;;;4827611;29;20056;-61
2022/04/18 11:31:21;;;;;;;9.98;5.90;;;358.70;793.60;;;;;;4844072;29;20497;-60
2022/04/18 11:33:47;;;;;;;13.82;7.32;;;358.70;768.00;;;;;;4858867;29;20499;-61
2022/04/18 11:36:14;;;;;;;17.13;9.98;;;358.70;819.20;;;;;;4847453;29;20037;-61
2022/04/18 11:38:41;;;;;;;25.48;13.15;;;358.60;844.80;;;;;;4840518;29;20026;-60
2022/04/18 11:41:14;;;;;;;37.65;19.42;;;358.50;844.80;;;;;;4842982;29;20045;-61
2022/04/18 11:43:40;;;;;;;22.65;12.85;;;358.50;819.20;;;;;;4843096;29;20381;-61
2022/04/18 11:46:09;;;;;;;38.05;20.00;;;358.40;819.20;;;;;;4854848;29;20033;-61
2022/04/18 11:48:39;;;;;;;28.58;15.60;;;333.50;793.60;;;;;;4861581;29;20085;-62
2022/04/18 11:51:08;;;;;;;136.98;71.90;;;333.30;819.20;;;;;;4861246;29;20072;-61
2022/04/18 11:53:35;;;;;;;52.40;28.58;;;333.50;819.20;;;;;;4860015;29;20116;-61
2022/04/18 11:56:05;;;;;;;82.57;45.30;;;333.50;793.60;;;;;;4847807;29;20049;-61
2022/04/18 11:58:44;;;;;;;124.45;61.42;;;333.70;793.60;;;;;;4842888;29;20022;-61
2022/04/18 12:06:47;;;;;;;68.07;36.75;;;358.60;793.60;;;;;;4843295;29;20068;-61
2022/04/18 12:09:15;;;;;;;;;;;358.80;819.20;;;;;;4843485;29;20053;-61
2022/04/18 12:11:41;;;;;;;36.05;19.95;;;358.80;819.20;;;;;;4843031;29;19966;-61
2022/04/18 12:14:07;;;;;;;70.65;36.42;;;358.90;844.80;;;;;;4848673;29;20049;-60
2022/04/18 12:16:34;;;;;;;77.68;42.65;;;358.90;844.80;;;;;;4836438;29;20086;-60
2022/04/18 12:19:00;;;;;;;26.38;16.77;;;358.90;819.20;;;;;;4846874;29;20054;-60
2022/04/18 12:21:26;;;;;;;10.48;7.32;;;358.90;819.20;;;;;;4846793;29;20058;-61
2022/04/18 12:23:56;;;;;;;19.83;12.18;;;359.00;844.80;;;;;;4847013;29;20026;-61
2022/04/18 12:26:29;;;;;;;107.30;50.10;;;359.00;819.20;;;;;;4832562;29;20093;-60
2022/04/18 12:29:05;;;;;;;76.85;40.53;;;359.10;819.20;;;;;;4853305;29;20111;-61
2022/04/18 12:31:31;;;;;;;109.30;46.78;;;359.10;793.60;;;;;;4853915;29;20133;-60
2022/04/18 12:33:58;;;;;;;121.32;53.17;;;359.10;819.20;;;;;;4861981;29;20502;-61
2022/04/18 12:36:38;;;;;;;81.05;40.33;;;359.10;793.60;;;;;;4842894;29;20090;-62
2022/04/18 12:39:05;;;;;;;34.42;18.63;;;359.10;768.00;;;;;;4864842;29;20029;-61
2022/04/18 12:41:33;;;;;;;22.60;13.18;;;359.00;742.40;;;;;;4852318;29;20401;-60
2022/04/18 12:43:59;;;;;;;83.90;45.15;;;358.90;742.40;;;;;;4845982;29;20026;-61